A- A+ FrançaisEnglishEspañol中国

Services sur Internet Soldes sur Internet Des idées de cadeaux Météo Météo aéro

La météo à : Autours de vous Tarbes-Lourdes-PyrénéesPontoise-Cormeilles-En-VexinChateauroux-Deols Paris-Orly

manche à air

La météo aéronautique pour les pilotes, la préparation du vol avec les METAR (METeorological Aerodrome Report, message d'observation des conditions météorologiques pour l'aviation) et Les TAF (Terminal Aerodrome Forecast : message de prévision à court terme des conditions météorologiques pour l'aviation). Et les autres ressources comme les VAC (Visual Approch Chart) et les NOTAM (Notice To Airman) pour préprer les vols.

Aéroport Moncton (Canada) / OACI CYQM/ IATA YQM

L'altitude de l'aéroport Moncton est de 71 m = 233 ft. Il est situé à proximité de Moncton (Canada). La météo générale à 5 jours est disponible pour Lakeburn situé à 1.4 km.

METAR de l'aéroport Moncton - CYQM

CYQM 170900Z 23006KT 15SM SKC M10/M13 A3042 RMK SLP310

Décodage du METAR de l'aéroport Moncton (CA)

METAR émis par CYQM le dimanche 17 novembre 2019 à 09:00 heure TU. Attention ce METAR est obsolète car il a été émis il y a 17 heure et 36 minutes.

La visibilité est de 24.1 km = 15 sm.

La température est de -10°C = 14 °F et le point rosée est de -13°C = 9 °F . Ce qui correspond à 79% d'humidité relative.

Le QNH est de 1030 hPa = 30.42 inHg

Vent de 6 kt = 11 km/h, orienté à 230°.

Pas de nuages.

RMK SLP310

TAF de l'aéroport Moncton - CYQM

CYQM 170538Z 1706/1806 25008KT P6SM SKC BECMG 1718/1720 VRB03KT RMK NXT FCST BY 171200Z

CYQM 170538Z 1706/1806 25008KT P6SM ciel dégagé devenant 1718/1720 VRB03KT remarques NXT trombe ST BY 171200Z

Aéroport à proximité de Moncton

Météo générale à 5 jours à Lakeburn (1.4 km)Aéroport Summerside (75 km)Aéroport Chatham (Miramichi?) (116 km)Aéroport Charlottetown (121 km)Aéroport Greenwood (127 km)Aéroport Saint John (129 km)Aéroport Fredericton (146 km)

Vue aérienne de l'aéroport Moncton

NOTAM de l'aéroport Moncton

Les NOTAM sont fournis sans aucune garantie de leur actualité. Le pilote est le seul responsable de la vérification de sa validité avant de l'utiliser opérationnellement pour préparer un vol ou l'utiliser lors de sa navigation.

Pas de NOTAM

Sources des données